^^
Station Historical Data
Daily Summary for February 11, 2017 Units:  Metric    English   Both
« Previous Day
Next Day »
Daily Weekly Monthly Yearly Custom
  High: Low: Average:
Temperature: 34.5 °C 23.4 °C 28.1 °C
Dew Point: 21.7 °C 8.8 °C 18.3 °C
Humidity: 84% 33% 58%
Wind Speed: 30.6km/h 0km/h 6.3km/h
Wind Gust: 37km/h - -
Wind- - WSW
Pressure: 1007.7 hPa 1001.2 hPa -
Precipitation: 0 mm    
Historical Graphs
 
 
Tabular Data for February 11, 2017
Time Temperature Dew Point Pressure Wind Wind Speed Wind Gust Humidity Rainfall Rate (Hourly) solar Conditions
00:00 26.5 °C 21.7 °C 1004.6 hPa Calm     75% 0 mm 0.0 W/m2
00:40 26.6 °C 20.7 °C 1004.6 hPa Calm     70% 0 mm 0.0 W/m2
01:01 26.4 °C 20 °C 1004.6 hPa Calm     68% 0 mm 0.0 W/m2
01:15 26.6 °C 20.4 °C 1004.3 hPa Calm     69% 0 mm 0.0 W/m2
01:21 26.7 °C 20.3 °C 1004.6 hPa Calm     68% 0 mm 0.0 W/m2
01:31 26.7 °C 20.8 °C 1004.6 hPa Calm     70% 0 mm 0.0 W/m2
02:02 26.4 °C 20.7 °C 1004.3 hPa Calm     71% 0 mm 0.0 W/m2
02:06 26.4 °C 20.5 °C 1004.3 hPa Calm     70% 0 mm 0.0 W/m2
02:18 26.4 °C 20.5 °C 1004.3 hPa Calm     70% 0 mm 0.0 W/m2
02:43 26.3 °C 20.2 °C 1003.9 hPa Calm     69% 0 mm 0.0 W/m2
02:58 26.4 °C 19.5 °C 1003.6 hPa Calm     66% 0 mm 0.0 W/m2
03:02 26.4 °C 19.5 °C 1003.6 hPa Calm     66% 0 mm 0.0 W/m2
03:39 26.2 °C 19.8 °C 1003.6 hPa Calm     68% 0 mm 0.0 W/m2
03:44 25.9 °C 19.8 °C 1003.6 hPa Calm     69% 0 mm 0.0 W/m2
03:49 25.9 °C 20 °C 1003.9 hPa Calm     70% 0 mm 0.0 W/m2
04:00 25.8 °C 19.9 °C 1003.9 hPa Calm     70% 0 mm 0.0 W/m2
04:13 25.7 °C 19.8 °C 1003.9 hPa Calm     70% 0 mm 0.0 W/m2
04:35 25.4 °C 19.8 °C 1004.3 hPa Calm     71% 0 mm 0.0 W/m2
04:39 25.4 °C 19.8 °C 1004.3 hPa Calm     71% 0 mm 0.0 W/m2
04:46 25.4 °C 20.2 °C 1004.3 hPa Calm     73% 0 mm 0.0 W/m2
05:11 25.1 °C 21 °C 1003.9 hPa Calm     78% 0 mm 0.0 W/m2
05:17 24.9 °C 21 °C 1003.9 hPa Calm     79% 0 mm 0.0 W/m2
06:19 24.5 °C 20.6 °C 1004.3 hPa Calm     79% 0 mm 0.0 W/m2
06:24 24.4 °C 20.9 °C 1003.9 hPa Calm     81% 0 mm 0.0 W/m2
06:29 24.4 °C 20.9 °C 1003.9 hPa Calm     81% 0 mm 0.0 W/m2
06:34 24.3 °C 21 °C 1003.9 hPa Calm     82% 0 mm 5.0 W/m2
06:38 24.2 °C 20.9 °C 1004.3 hPa Calm     82% 0 mm 7.0 W/m2
06:43 24.1 °C 21 °C 1004.3 hPa Calm     83% 0 mm 12.0 W/m2
06:48 24.1 °C 21 °C 1004.3 hPa Calm     83% 0 mm 14.0 W/m2
06:53 24.3 °C 21.4 °C 1004.3 hPa Calm     84% 0 mm 23.0 W/m2
07:04 24.6 °C 21.3 °C 1004.6 hPa Calm     82% 0 mm 49.0 W/m2
07:20 25.1 °C 21.4 °C 1004.6 hPa Calm     80% 0 mm 83.0 W/m2
07:36 25.6 °C 21.3 °C 1004.6 hPa Calm     77% 0 mm 142.0 W/m2
07:51 26.1 °C 20.9 °C 1004.6 hPa Calm     73% 0 mm 207.0 W/m2
08:00 26.5 °C 20.1 °C 1004.6 hPa Calm     68% 0 mm 267.0 W/m2
08:21 27.2 °C 20 °C 1005 hPa Calm     65% 0 mm 320.0 W/m2
08:26 27.3 °C 20.4 °C 1005 hPa Calm     66% 0 mm 359.0 W/m2
08:42 27.4 °C 20 °C 1005 hPa Calm     64% 0 mm 392.0 W/m2
08:46 27.7 °C 20 °C 1005 hPa Calm   8 km/h 63% 0 mm 429.0 W/m2
09:01 28 °C 20.3 °C 1005 hPa NW 9.7 km/h 9.7 km/h 63% 0 mm 473.0 W/m2
09:21 28.2 °C 20.2 °C 1005 hPa NNW 7.9 km/h 14.5 km/h 62% 0 mm 519.0 W/m2
09:31 28.5 °C 20.5 °C 1005 hPa NNW 1.4 km/h 14.5 km/h 62% 0 mm 561.0 W/m2
09:42 28.5 °C 20.5 °C 1005 hPa NNW 3.2 km/h 12.9 km/h 62% 0 mm 592.0 W/m2
09:47 28.8 °C 20.3 °C 1005 hPa NNW 7.9 km/h 20.9 km/h 60% 0 mm 617.0 W/m2
10:02 29.1 °C 20 °C 1004.6 hPa NNW 7.9 km/h 14.5 km/h 58% 0 mm 675.0 W/m2
10:25 29.7 °C 20.3 °C 1004.6 hPa NNW 9.7 km/h 17.7 km/h 57% 0 mm 708.0 W/m2
10:33 29.9 °C 20.2 °C 1004.6 hPa Calm   11.3 km/h 56% 0 mm 758.0 W/m2
10:48 30.2 °C 19.6 °C 1004.6 hPa Calm   11.3 km/h 53% 0 mm 788.0 W/m2
11:03 30.4 °C 19.7 °C 1004.6 hPa Calm   12.9 km/h 53% 0 mm 816.0 W/m2
11:25 30.6 °C 19.6 °C 1004.3 hPa Calm     52% 0 mm 847.0 W/m2
11:40 31.3 °C 19.6 °C 1004.3 hPa Calm   11.3 km/h 50% 0 mm 868.0 W/m2
11:55 31.4 °C 19.7 °C 1003.9 hPa Calm   12.9 km/h 50% 0 mm 884.0 W/m2
12:11 31.9 °C 19.5 °C 1003.9 hPa Calm     48% 0 mm 909.0 W/m2
12:26 32.2 °C 19.5 °C 1003.9 hPa Calm     47% 0 mm 932.0 W/m2
12:30 32.4 °C 19.3 °C 1003.9 hPa NNW 7.9 km/h 9.7 km/h 46% 0 mm 965.0 W/m2
12:47 32.7 °C 18.5 °C 1003.6 hPa NNW 14.3 km/h 17.7 km/h 43% 0 mm 958.0 W/m2
12:56 33.3 °C 18.6 °C 1003.6 hPa Calm   11.3 km/h 42% 0 mm 1009.0 W/m2
13:17 33.9 °C 18.4 °C 1003.3 hPa Calm   3.2 km/h 40% 0 mm 997.0 W/m2
13:27 33.6 °C 18.9 °C 1002.9 hPa Calm     42% 0 mm 960.0 W/m2
13:37 34.2 °C 19.1 °C 1002.6 hPa Calm     41% 0 mm 935.0 W/m2
13:48 34.4 °C 18.4 °C 1002.6 hPa Calm   12.9 km/h 39% 0 mm 947.0 W/m2
14:02 34.5 °C 18.5 °C 1002.6 hPa Calm   9.7 km/h 39% 0 mm 1016.0 W/m2
14:10 33.7 °C 18.2 °C 1002.6 hPa NW 1.4 km/h 17.7 km/h 40% 0 mm 104.0 W/m2
17:44 34.3 °C 15.7 °C 1001.2 hPa SSW 25.9 km/h 30.6 km/h 33% 0 mm 352.0 W/m2
17:48 33.8 °C 15.3 °C 1001.2 hPa SSW 25.9 km/h 33.8 km/h 33% 0 mm 316.0 W/m2
17:58 33.7 °C 15.2 °C 1001.2 hPa SSW 22.7 km/h 33.8 km/h 33% 0 mm 279.0 W/m2
18:20 32.6 °C 14.7 °C 1001.6 hPa South 28.8 km/h 33.8 km/h 34% 0 mm 225.0 W/m2
18:28 32.1 °C 14.7 °C 1001.6 hPa South 30.6 km/h 33.8 km/h 35% 0 mm 163.0 W/m2
18:33 32.1 °C 14.7 °C 1001.6 hPa South 30.6 km/h 33.8 km/h 35% 0 mm 163.0 W/m2
18:45 31.9 °C 14.5 °C 1001.9 hPa SSW 25.9 km/h 32.2 km/h 35% 0 mm 121.0 W/m2
18:53 31.3 °C 14.4 °C 1001.9 hPa SSW 28.8 km/h 37 km/h 36% 0 mm 67.0 W/m2
19:00 31.3 °C 14.4 °C 1001.9 hPa SSW 28.8 km/h 37 km/h 36% 0 mm 67.0 W/m2
19:15 30.7 °C 14.3 °C 1002.3 hPa SSW 27.4 km/h 35.4 km/h 37% 0 mm 25.0 W/m2
19:27 30.2 °C 13.9 °C 1002.6 hPa South 20.9 km/h 30.6 km/h 37% 0 mm 11.0 W/m2
22:10 25.5 °C 9.7 °C 1006.7 hPa South 19.5 km/h 27.4 km/h 37% 0 mm 0.0 W/m2
22:20 25.1 °C 10.2 °C 1006.7 hPa SSW 19.5 km/h 30.6 km/h 39% 0 mm 0.0 W/m2
22:35 24.7 °C 9.8 °C 1007 hPa SSW 13 km/h 25.7 km/h 39% 0 mm 0.0 W/m2
22:45 24.5 °C 9.6 °C 1007.3 hPa SSW 24.1 km/h 25.7 km/h 39% 0 mm 0.0 W/m2
22:59 24.1 °C 9.3 °C 1007.3 hPa SSW 19.5 km/h 19.5 km/h 39% 0 mm 0.0 W/m2
23:10 24.1 °C 9.3 °C 1007.3 hPa SSW 22.7 km/h 25.7 km/h 39% 0 mm 0.0 W/m2
23:36 23.6 °C 8.8 °C 1007.3 hPa SSW 14.3 km/h 17.7 km/h 39% 0 mm 0.0 W/m2
23:41 23.4 °C 9 °C 1007.7 hPa South 17.7 km/h 19.3 km/h 40% 0 mm 0.0 W/m2
Canyon Roadhouse, Fishriver Canyon, Namibia
Compliments of Weather Underground - 2 mb